sensor_id;sensor_type;location;lat;lon;timestamp;P1;durP1;ratioP1;P2;durP2;ratioP2
2119;SDS011;1066;52.540;13.420;2023-08-12T00:01:09;4.33;;;3.93;;
2119;SDS011;1066;52.540;13.420;2023-08-12T00:04:27;5.20;;;4.80;;
2119;SDS011;1066;52.540;13.420;2023-08-12T00:07:45;4.93;;;4.53;;
2119;SDS011;1066;52.540;13.420;2023-08-12T00:11:03;4.60;;;4.20;;
2119;SDS011;1066;52.540;13.420;2023-08-12T00:14:20;4.60;;;4.20;;
2119;SDS011;1066;52.540;13.420;2023-08-12T00:17:39;4.80;;;4.40;;
2119;SDS011;1066;52.540;13.420;2023-08-12T00:21:10;7.27;;;5.07;;
2119;SDS011;1066;52.540;13.420;2023-08-12T00:24:29;4.77;;;4.30;;
2119;SDS011;1066;52.540;13.420;2023-08-12T00:27:47;4.30;;;3.90;;
2119;SDS011;1066;52.540;13.420;2023-08-12T00:31:05;5.23;;;4.47;;
2119;SDS011;1066;52.540;13.420;2023-08-12T00:34:23;5.20;;;4.80;;
2119;SDS011;1066;52.540;13.420;2023-08-12T00:37:43;4.17;;;3.80;;
2119;SDS011;1066;52.540;13.420;2023-08-12T00:41:10;4.83;;;4.30;;
2119;SDS011;1066;52.540;13.420;2023-08-12T00:44:28;5.10;;;4.60;;
2119;SDS011;1066;52.540;13.420;2023-08-12T00:47:46;4.70;;;4.30;;
2119;SDS011;1066;52.540;13.420;2023-08-12T00:51:05;4.93;;;4.30;;
2119;SDS011;1066;52.540;13.420;2023-08-12T00:54:23;4.60;;;4.20;;
2119;SDS011;1066;52.540;13.420;2023-08-12T00:57:41;5.77;;;4.33;;
2119;SDS011;1066;52.540;13.420;2023-08-12T01:00:59;6.33;;;4.83;;
2119;SDS011;1066;52.540;13.420;2023-08-12T01:04:17;4.80;;;4.33;;
2119;SDS011;1066;52.540;13.420;2023-08-12T01:07:36;4.23;;;3.67;;
2119;SDS011;1066;52.540;13.420;2023-08-12T01:10:58;5.50;;;5.00;;
2119;SDS011;1066;52.540;13.420;2023-08-12T01:14:23;4.50;;;4.20;;
2119;SDS011;1066;52.540;13.420;2023-08-12T01:17:45;4.50;;;4.10;;
2119;SDS011;1066;52.540;13.420;2023-08-12T01:21:04;4.10;;;3.70;;
2119;SDS011;1066;52.540;13.420;2023-08-12T01:24:25;4.07;;;3.77;;
2119;SDS011;1066;52.540;13.420;2023-08-12T01:27:43;4.33;;;4.03;;
2119;SDS011;1066;52.540;13.420;2023-08-12T01:35:10;5.33;;;4.47;;
2119;SDS011;1066;52.540;13.420;2023-08-12T01:38:33;5.00;;;4.60;;
2119;SDS011;1066;52.540;13.420;2023-08-12T01:41:52;4.83;;;3.97;;
2119;SDS011;1066;52.540;13.420;2023-08-12T01:45:10;4.57;;;4.17;;
2119;SDS011;1066;52.540;13.420;2023-08-12T01:48:28;5.93;;;3.50;;
2119;SDS011;1066;52.540;13.420;2023-08-12T01:51:48;4.47;;;4.03;;
2119;SDS011;1066;52.540;13.420;2023-08-12T01:55:06;3.53;;;3.33;;
2119;SDS011;1066;52.540;13.420;2023-08-12T01:58:24;4.60;;;4.30;;
2119;SDS011;1066;52.540;13.420;2023-08-12T02:01:42;5.70;;;4.43;;
2119;SDS011;1066;52.540;13.420;2023-08-12T02:04:59;4.83;;;4.20;;
2119;SDS011;1066;52.540;13.420;2023-08-12T02:08:17;4.87;;;4.47;;
2119;SDS011;1066;52.540;13.420;2023-08-12T02:11:35;4.83;;;4.40;;
2119;SDS011;1066;52.540;13.420;2023-08-12T02:14:53;4.50;;;4.20;;
2119;SDS011;1066;52.540;13.420;2023-08-12T02:18:11;4.90;;;4.50;;
2119;SDS011;1066;52.540;13.420;2023-08-12T02:21:29;4.53;;;4.10;;
2119;SDS011;1066;52.540;13.420;2023-08-12T02:24:47;4.33;;;4.00;;
2119;SDS011;1066;52.540;13.420;2023-08-12T02:28:05;4.43;;;4.13;;
2119;SDS011;1066;52.540;13.420;2023-08-12T02:31:23;4.10;;;3.80;;
2119;SDS011;1066;52.540;13.420;2023-08-12T02:34:41;4.30;;;4.00;;
2119;SDS011;1066;52.540;13.420;2023-08-12T02:37:59;4.47;;;4.07;;
2119;SDS011;1066;52.540;13.420;2023-08-12T02:41:16;4.87;;;3.90;;
2119;SDS011;1066;52.540;13.420;2023-08-12T02:44:34;4.77;;;4.37;;
2119;SDS011;1066;52.540;13.420;2023-08-12T02:47:52;4.17;;;3.77;;
2119;SDS011;1066;52.540;13.420;2023-08-12T02:51:10;5.23;;;4.50;;
2119;SDS011;1066;52.540;13.420;2023-08-12T02:54:28;4.20;;;3.90;;
2119;SDS011;1066;52.540;13.420;2023-08-12T02:57:46;4.80;;;3.97;;
2119;SDS011;1066;52.540;13.420;2023-08-12T03:01:04;5.50;;;4.43;;
2119;SDS011;1066;52.540;13.420;2023-08-12T03:04:22;5.53;;;4.37;;
2119;SDS011;1066;52.540;13.420;2023-08-12T03:07:40;5.20;;;4.70;;
2119;SDS011;1066;52.540;13.420;2023-08-12T03:10:58;4.10;;;3.80;;
2119;SDS011;1066;52.540;13.420;2023-08-12T03:14:16;4.83;;;3.93;;
2119;SDS011;1066;52.540;13.420;2023-08-12T03:17:34;5.30;;;4.80;;
2119;SDS011;1066;52.540;13.420;2023-08-12T03:20:52;4.30;;;4.00;;
2119;SDS011;1066;52.540;13.420;2023-08-12T03:24:10;4.87;;;4.10;;
2119;SDS011;1066;52.540;13.420;2023-08-12T03:27:29;4.27;;;3.90;;
2119;SDS011;1066;52.540;13.420;2023-08-12T03:30:50;5.07;;;4.63;;
2119;SDS011;1066;52.540;13.420;2023-08-12T03:34:08;4.50;;;4.20;;
2119;SDS011;1066;52.540;13.420;2023-08-12T03:37:26;5.80;;;3.83;;
2119;SDS011;1066;52.540;13.420;2023-08-12T03:40:44;5.83;;;4.70;;
2119;SDS011;1066;52.540;13.420;2023-08-12T03:44:02;4.37;;;3.97;;
2119;SDS011;1066;52.540;13.420;2023-08-12T03:47:20;4.77;;;4.37;;
2119;SDS011;1066;52.540;13.420;2023-08-12T03:50:38;5.23;;;4.83;;
2119;SDS011;1066;52.540;13.420;2023-08-12T03:53:56;4.67;;;4.27;;
2119;SDS011;1066;52.540;13.420;2023-08-12T03:57:14;6.80;;;4.63;;
2119;SDS011;1066;52.540;13.420;2023-08-12T04:00:32;4.10;;;3.80;;
2119;SDS011;1066;52.540;13.420;2023-08-12T04:03:50;4.90;;;4.60;;
2119;SDS011;1066;52.540;13.420;2023-08-12T04:07:09;5.27;;;4.87;;
2119;SDS011;1066;52.540;13.420;2023-08-12T04:10:26;3.73;;;3.43;;
2119;SDS011;1066;52.540;13.420;2023-08-12T04:13:44;5.37;;;4.87;;
2119;SDS011;1066;52.540;13.420;2023-08-12T04:17:02;6.40;;;4.13;;
2119;SDS011;1066;52.540;13.420;2023-08-12T04:20:21;5.27;;;4.87;;
2119;SDS011;1066;52.540;13.420;2023-08-12T04:23:39;4.30;;;3.90;;
2119;SDS011;1066;52.540;13.420;2023-08-12T04:26:57;5.00;;;4.23;;
2119;SDS011;1066;52.540;13.420;2023-08-12T04:30:15;4.53;;;4.23;;
2119;SDS011;1066;52.540;13.420;2023-08-12T04:33:33;5.53;;;4.70;;
2119;SDS011;1066;52.540;13.420;2023-08-12T04:36:51;4.30;;;4.00;;
2119;SDS011;1066;52.540;13.420;2023-08-12T04:40:09;4.53;;;4.13;;
2119;SDS011;1066;52.540;13.420;2023-08-12T04:43:27;4.40;;;4.10;;
2119;SDS011;1066;52.540;13.420;2023-08-12T04:46:45;5.20;;;4.80;;
2119;SDS011;1066;52.540;13.420;2023-08-12T04:50:03;5.10;;;4.70;;
2119;SDS011;1066;52.540;13.420;2023-08-12T04:53:25;6.50;;;4.70;;
2119;SDS011;1066;52.540;13.420;2023-08-12T04:56:42;5.50;;;5.00;;
2119;SDS011;1066;52.540;13.420;2023-08-12T05:00:00;5.10;;;4.70;;
2119;SDS011;1066;52.540;13.420;2023-08-12T05:03:18;4.93;;;4.43;;
2119;SDS011;1066;52.540;13.420;2023-08-12T05:06:36;4.70;;;4.30;;
2119;SDS011;1066;52.540;13.420;2023-08-12T05:09:56;4.53;;;3.63;;
2119;SDS011;1066;52.540;13.420;2023-08-12T05:13:14;6.47;;;4.27;;
2119;SDS011;1066;52.540;13.420;2023-08-12T05:16:33;4.90;;;4.50;;
2119;SDS011;1066;52.540;13.420;2023-08-12T05:19:51;6.83;;;4.60;;
2119;SDS011;1066;52.540;13.420;2023-08-12T05:23:09;6.77;;;4.83;;
2119;SDS011;1066;52.540;13.420;2023-08-12T05:26:26;4.30;;;3.90;;
2119;SDS011;1066;52.540;13.420;2023-08-12T05:29:44;6.23;;;4.80;;
2119;SDS011;1066;52.540;13.420;2023-08-12T05:33:03;6.80;;;4.90;;
2119;SDS011;1066;52.540;13.420;2023-08-12T05:36:21;4.33;;;4.00;;
2119;SDS011;1066;52.540;13.420;2023-08-12T05:39:39;5.17;;;4.67;;
2119;SDS011;1066;52.540;13.420;2023-08-12T05:42:57;4.03;;;3.73;;
2119;SDS011;1066;52.540;13.420;2023-08-12T05:46:15;4.90;;;4.40;;
2119;SDS011;1066;52.540;13.420;2023-08-12T05:49:33;5.33;;;4.80;;
2119;SDS011;1066;52.540;13.420;2023-08-12T05:52:51;4.27;;;3.90;;
2119;SDS011;1066;52.540;13.420;2023-08-12T05:56:08;4.70;;;4.30;;
2119;SDS011;1066;52.540;13.420;2023-08-12T05:59:26;5.70;;;4.57;;
2119;SDS011;1066;52.540;13.420;2023-08-12T06:02:44;4.73;;;4.30;;
2119;SDS011;1066;52.540;13.420;2023-08-12T06:06:02;4.20;;;3.83;;
2119;SDS011;1066;52.540;13.420;2023-08-12T06:09:21;3.80;;;3.50;;
2119;SDS011;1066;52.540;13.420;2023-08-12T06:12:38;5.27;;;4.87;;
2119;SDS011;1066;52.540;13.420;2023-08-12T06:15:56;4.23;;;3.90;;
2119;SDS011;1066;52.540;13.420;2023-08-12T06:19:14;5.67;;;5.13;;
2119;SDS011;1066;52.540;13.420;2023-08-12T06:22:32;5.63;;;5.10;;
2119;SDS011;1066;52.540;13.420;2023-08-12T06:25:50;6.67;;;4.53;;
2119;SDS011;1066;52.540;13.420;2023-08-12T06:29:08;4.50;;;4.10;;
2119;SDS011;1066;52.540;13.420;2023-08-12T06:32:26;5.77;;;5.20;;
2119;SDS011;1066;52.540;13.420;2023-08-12T06:35:46;7.43;;;6.43;;
2119;SDS011;1066;52.540;13.420;2023-08-12T06:39:04;6.67;;;5.53;;
2119;SDS011;1066;52.540;13.420;2023-08-12T06:42:22;5.27;;;4.77;;
2119;SDS011;1066;52.540;13.420;2023-08-12T06:45:40;8.57;;;7.77;;
2119;SDS011;1066;52.540;13.420;2023-08-12T06:48:58;5.10;;;4.70;;
2119;SDS011;1066;52.540;13.420;2023-08-12T06:52:16;5.37;;;4.83;;
2119;SDS011;1066;52.540;13.420;2023-08-12T06:55:34;5.83;;;5.23;;
2119;SDS011;1066;52.540;13.420;2023-08-12T06:58:52;5.40;;;4.90;;
2119;SDS011;1066;52.540;13.420;2023-08-12T07:02:10;6.10;;;5.20;;
2119;SDS011;1066;52.540;13.420;2023-08-12T07:05:28;4.80;;;4.40;;
2119;SDS011;1066;52.540;13.420;2023-08-12T07:08:45;5.30;;;4.43;;
2119;SDS011;1066;52.540;13.420;2023-08-12T07:12:03;4.60;;;4.20;;
2119;SDS011;1066;52.540;13.420;2023-08-12T07:15:21;5.20;;;4.70;;
2119;SDS011;1066;52.540;13.420;2023-08-12T07:18:39;5.53;;;5.03;;
2119;SDS011;1066;52.540;13.420;2023-08-12T07:21:57;6.07;;;5.30;;
2119;SDS011;1066;52.540;13.420;2023-08-12T07:25:17;5.47;;;4.90;;
2119;SDS011;1066;52.540;13.420;2023-08-12T07:28:35;5.00;;;4.60;;
2119;SDS011;1066;52.540;13.420;2023-08-12T07:31:53;6.13;;;4.57;;
2119;SDS011;1066;52.540;13.420;2023-08-12T07:35:13;6.47;;;4.37;;
2119;SDS011;1066;52.540;13.420;2023-08-12T07:38:31;4.83;;;4.43;;
2119;SDS011;1066;52.540;13.420;2023-08-12T07:41:49;7.23;;;5.17;;
2119;SDS011;1066;52.540;13.420;2023-08-12T07:45:07;6.43;;;5.40;;
2119;SDS011;1066;52.540;13.420;2023-08-12T07:48:25;5.50;;;4.70;;
2119;SDS011;1066;52.540;13.420;2023-08-12T07:51:43;6.13;;;5.63;;
2119;SDS011;1066;52.540;13.420;2023-08-12T07:55:01;6.03;;;5.23;;
2119;SDS011;1066;52.540;13.420;2023-08-12T07:58:19;5.10;;;4.60;;
2119;SDS011;1066;52.540;13.420;2023-08-12T08:01:37;5.87;;;5.30;;
2119;SDS011;1066;52.540;13.420;2023-08-12T08:04:54;6.27;;;5.50;;
2119;SDS011;1066;52.540;13.420;2023-08-12T08:08:13;5.37;;;4.97;;
2119;SDS011;1066;52.540;13.420;2023-08-12T08:11:31;5.70;;;5.30;;
2119;SDS011;1066;52.540;13.420;2023-08-12T08:14:49;4.93;;;4.53;;
2119;SDS011;1066;52.540;13.420;2023-08-12T08:18:07;4.30;;;3.90;;
2119;SDS011;1066;52.540;13.420;2023-08-12T08:21:25;9.47;;;6.20;;
2119;SDS011;1066;52.540;13.420;2023-08-12T08:24:43;7.20;;;5.97;;
2119;SDS011;1066;52.540;13.420;2023-08-12T08:28:01;5.40;;;4.90;;
2119;SDS011;1066;52.540;13.420;2023-08-12T08:31:19;9.23;;;6.70;;
2119;SDS011;1066;52.540;13.420;2023-08-12T08:34:36;6.50;;;5.87;;
2119;SDS011;1066;52.540;13.420;2023-08-12T08:37:54;5.60;;;5.10;;
2119;SDS011;1066;52.540;13.420;2023-08-12T08:41:12;6.27;;;5.67;;
2119;SDS011;1066;52.540;13.420;2023-08-12T08:44:31;6.70;;;4.90;;
2119;SDS011;1066;52.540;13.420;2023-08-12T08:47:51;6.57;;;5.30;;
2119;SDS011;1066;52.540;13.420;2023-08-12T08:51:12;6.83;;;4.87;;
2119;SDS011;1066;52.540;13.420;2023-08-12T08:54:29;5.83;;;5.33;;
2119;SDS011;1066;52.540;13.420;2023-08-12T08:57:48;6.20;;;5.63;;
2119;SDS011;1066;52.540;13.420;2023-08-12T09:01:08;6.27;;;5.60;;
2119;SDS011;1066;52.540;13.420;2023-08-12T09:04:26;5.97;;;5.47;;
2119;SDS011;1066;52.540;13.420;2023-08-12T09:07:45;6.10;;;5.60;;
2119;SDS011;1066;52.540;13.420;2023-08-12T09:11:04;5.37;;;4.97;;
2119;SDS011;1066;52.540;13.420;2023-08-12T09:14:22;5.53;;;5.03;;
2119;SDS011;1066;52.540;13.420;2023-08-12T09:18:01;6.70;;;6.00;;
2119;SDS011;1066;52.540;13.420;2023-08-12T09:20:29;5.27;;;4.67;;
2119;SDS011;1066;52.540;13.420;2023-08-12T09:22:55;6.03;;;5.43;;
2119;SDS011;1066;52.540;13.420;2023-08-12T09:25:21;5.70;;;5.20;;
2119;SDS011;1066;52.540;13.420;2023-08-12T09:27:46;5.97;;;5.47;;
2119;SDS011;1066;52.540;13.420;2023-08-12T09:30:11;6.70;;;6.03;;
2119;SDS011;1066;52.540;13.420;2023-08-12T09:32:38;6.43;;;5.33;;
2119;SDS011;1066;52.540;13.420;2023-08-12T09:35:03;6.27;;;5.73;;
2119;SDS011;1066;52.540;13.420;2023-08-12T09:37:30;5.97;;;5.47;;
2119;SDS011;1066;52.540;13.420;2023-08-12T09:39:55;5.50;;;5.00;;
2119;SDS011;1066;52.540;13.420;2023-08-12T09:42:21;7.30;;;6.70;;
2119;SDS011;1066;52.540;13.420;2023-08-12T09:44:46;6.50;;;5.90;;
2119;SDS011;1066;52.540;13.420;2023-08-12T09:47:12;7.33;;;6.47;;
2119;SDS011;1066;52.540;13.420;2023-08-12T09:49:40;7.03;;;6.47;;
2119;SDS011;1066;52.540;13.420;2023-08-12T09:52:06;8.23;;;5.70;;
2119;SDS011;1066;52.540;13.420;2023-08-12T09:54:32;6.93;;;6.23;;
2119;SDS011;1066;52.540;13.420;2023-08-12T09:56:59;6.80;;;6.10;;
2119;SDS011;1066;52.540;13.420;2023-08-12T09:59:25;7.43;;;6.70;;
2119;SDS011;1066;52.540;13.420;2023-08-12T10:01:52;6.33;;;5.73;;
2119;SDS011;1066;52.540;13.420;2023-08-12T10:04:18;6.87;;;6.17;;
2119;SDS011;1066;52.540;13.420;2023-08-12T10:06:46;6.80;;;6.23;;
2119;SDS011;1066;52.540;13.420;2023-08-12T10:09:12;7.23;;;6.30;;
2119;SDS011;1066;52.540;13.420;2023-08-12T10:11:38;8.00;;;6.00;;
2119;SDS011;1066;52.540;13.420;2023-08-12T10:14:04;6.07;;;5.63;;
2119;SDS011;1066;52.540;13.420;2023-08-12T10:16:29;6.70;;;5.43;;
2119;SDS011;1066;52.540;13.420;2023-08-12T10:18:55;6.53;;;5.93;;
2119;SDS011;1066;52.540;13.420;2023-08-12T10:21:23;6.80;;;6.30;;
2119;SDS011;1066;52.540;13.420;2023-08-12T10:23:49;10.60;;;6.20;;
2119;SDS011;1066;52.540;13.420;2023-08-12T10:26:15;9.60;;;6.60;;
2119;SDS011;1066;52.540;13.420;2023-08-12T10:28:40;6.63;;;6.13;;
2119;SDS011;1066;52.540;13.420;2023-08-12T10:31:06;6.60;;;6.10;;
2119;SDS011;1066;52.540;13.420;2023-08-12T10:33:35;8.50;;;6.30;;
2119;SDS011;1066;52.540;13.420;2023-08-12T10:36:00;6.43;;;5.63;;
2119;SDS011;1066;52.540;13.420;2023-08-12T10:38:25;6.97;;;6.27;;
2119;SDS011;1066;52.540;13.420;2023-08-12T10:41:15;7.10;;;5.40;;
2119;SDS011;1066;52.540;13.420;2023-08-12T10:48:59;7.43;;;6.83;;
2119;SDS011;1066;52.540;13.420;2023-08-12T10:51:45;6.80;;;6.30;;
2119;SDS011;1066;52.540;13.420;2023-08-12T10:54:14;6.13;;;5.60;;
2119;SDS011;1066;52.540;13.420;2023-08-12T11:02:13;6.80;;;6.07;;
2119;SDS011;1066;52.540;13.420;2023-08-12T11:04:41;6.80;;;6.27;;
2119;SDS011;1066;52.540;13.420;2023-08-12T11:07:17;6.27;;;5.67;;
2119;SDS011;1066;52.540;13.420;2023-08-12T11:09:43;7.67;;;6.87;;
2119;SDS011;1066;52.540;13.420;2023-08-12T11:12:10;6.60;;;6.07;;
2119;SDS011;1066;52.540;13.420;2023-08-12T11:14:54;6.30;;;5.80;;
2119;SDS011;1066;52.540;13.420;2023-08-12T11:17:27;7.93;;;5.53;;
2119;SDS011;1066;52.540;13.420;2023-08-12T11:19:52;8.13;;;5.80;;
2119;SDS011;1066;52.540;13.420;2023-08-12T11:22:17;8.70;;;6.30;;
2119;SDS011;1066;52.540;13.420;2023-08-12T11:24:42;8.03;;;5.33;;
2119;SDS011;1066;52.540;13.420;2023-08-12T11:27:11;7.30;;;6.73;;
2119;SDS011;1066;52.540;13.420;2023-08-12T11:29:37;7.67;;;6.60;;
2119;SDS011;1066;52.540;13.420;2023-08-12T11:32:02;7.13;;;6.40;;
2119;SDS011;1066;52.540;13.420;2023-08-12T11:34:27;6.27;;;5.67;;
2119;SDS011;1066;52.540;13.420;2023-08-12T11:36:53;6.90;;;6.03;;
2119;SDS011;1066;52.540;13.420;2023-08-12T11:39:19;6.70;;;6.17;;
2119;SDS011;1066;52.540;13.420;2023-08-12T11:41:44;5.60;;;5.20;;
2119;SDS011;1066;52.540;13.420;2023-08-12T11:44:15;5.50;;;4.73;;
2119;SDS011;1066;52.540;13.420;2023-08-12T11:46:40;5.90;;;5.40;;
2119;SDS011;1066;52.540;13.420;2023-08-12T11:49:06;8.90;;;6.70;;
2119;SDS011;1066;52.540;13.420;2023-08-12T11:51:31;5.90;;;4.83;;
2119;SDS011;1066;52.540;13.420;2023-08-12T11:53:56;5.80;;;5.30;;
2119;SDS011;1066;52.540;13.420;2023-08-12T11:56:21;9.87;;;5.90;;
2119;SDS011;1066;52.540;13.420;2023-08-12T11:58:49;5.30;;;4.80;;
2119;SDS011;1066;52.540;13.420;2023-08-12T12:01:21;5.70;;;4.63;;
2119;SDS011;1066;52.540;13.420;2023-08-12T12:03:51;5.70;;;5.20;;
2119;SDS011;1066;52.540;13.420;2023-08-12T12:06:16;5.30;;;4.80;;
2119;SDS011;1066;52.540;13.420;2023-08-12T12:08:46;5.93;;;5.50;;
2119;SDS011;1066;52.540;13.420;2023-08-12T12:11:13;7.03;;;4.90;;
2119;SDS011;1066;52.540;13.420;2023-08-12T12:13:39;6.10;;;5.60;;
2119;SDS011;1066;52.540;13.420;2023-08-12T12:16:09;5.60;;;5.10;;
2119;SDS011;1066;52.540;13.420;2023-08-12T12:18:35;5.50;;;5.00;;
2119;SDS011;1066;52.540;13.420;2023-08-12T12:21:00;5.73;;;5.20;;
2119;SDS011;1066;52.540;13.420;2023-08-12T12:23:28;5.50;;;5.00;;
2119;SDS011;1066;52.540;13.420;2023-08-12T12:26:01;5.47;;;5.07;;
2119;SDS011;1066;52.540;13.420;2023-08-12T12:28:26;5.60;;;5.10;;
2119;SDS011;1066;52.540;13.420;2023-08-12T12:30:51;5.80;;;5.30;;
2119;SDS011;1066;52.540;13.420;2023-08-12T12:33:17;5.10;;;4.70;;
2119;SDS011;1066;52.540;13.420;2023-08-12T12:35:42;5.70;;;5.20;;
2119;SDS011;1066;52.540;13.420;2023-08-12T12:38:07;5.47;;;4.97;;
2119;SDS011;1066;52.540;13.420;2023-08-12T12:40:33;5.63;;;5.17;;
2119;SDS011;1066;52.540;13.420;2023-08-12T12:42:58;5.70;;;4.80;;
2119;SDS011;1066;52.540;13.420;2023-08-12T12:45:24;5.87;;;5.37;;
2119;SDS011;1066;52.540;13.420;2023-08-12T12:47:49;6.53;;;5.27;;
2119;SDS011;1066;52.540;13.420;2023-08-12T12:50:14;5.30;;;4.90;;
2119;SDS011;1066;52.540;13.420;2023-08-12T12:52:39;5.53;;;4.60;;
2119;SDS011;1066;52.540;13.420;2023-08-12T12:55:05;5.43;;;4.93;;
2119;SDS011;1066;52.540;13.420;2023-08-12T12:57:30;5.00;;;4.67;;
2119;SDS011;1066;52.540;13.420;2023-08-12T12:59:56;5.87;;;5.30;;
2119;SDS011;1066;52.540;13.420;2023-08-12T13:02:21;5.60;;;5.20;;
2119;SDS011;1066;52.540;13.420;2023-08-12T13:04:46;5.53;;;5.03;;
2119;SDS011;1066;52.540;13.420;2023-08-12T13:07:11;6.57;;;5.50;;
2119;SDS011;1066;52.540;13.420;2023-08-12T13:09:36;5.60;;;5.00;;
2119;SDS011;1066;52.540;13.420;2023-08-12T13:12:02;6.10;;;5.60;;
2119;SDS011;1066;52.540;13.420;2023-08-12T13:14:27;7.20;;;5.67;;
2119;SDS011;1066;52.540;13.420;2023-08-12T13:16:53;6.63;;;5.10;;
2119;SDS011;1066;52.540;13.420;2023-08-12T13:19:19;6.30;;;5.70;;
2119;SDS011;1066;52.540;13.420;2023-08-12T13:21:44;6.20;;;5.60;;
2119;SDS011;1066;52.540;13.420;2023-08-12T13:24:09;5.70;;;5.30;;
2119;SDS011;1066;52.540;13.420;2023-08-12T13:26:34;5.37;;;4.90;;
2119;SDS011;1066;52.540;13.420;2023-08-12T13:28:59;7.03;;;5.70;;
2119;SDS011;1066;52.540;13.420;2023-08-12T13:31:25;6.03;;;5.53;;
2119;SDS011;1066;52.540;13.420;2023-08-12T13:33:50;6.00;;;5.50;;
2119;SDS011;1066;52.540;13.420;2023-08-12T13:36:15;5.80;;;5.33;;
2119;SDS011;1066;52.540;13.420;2023-08-12T13:38:41;6.13;;;5.53;;
2119;SDS011;1066;52.540;13.420;2023-08-12T13:41:06;6.53;;;5.93;;
2119;SDS011;1066;52.540;13.420;2023-08-12T13:43:31;6.00;;;5.50;;
2119;SDS011;1066;52.540;13.420;2023-08-12T13:45:56;7.03;;;6.30;;
2119;SDS011;1066;52.540;13.420;2023-08-12T13:48:22;6.73;;;6.20;;
2119;SDS011;1066;52.540;13.420;2023-08-12T13:50:47;6.07;;;5.57;;
2119;SDS011;1066;52.540;13.420;2023-08-12T13:53:14;6.90;;;6.30;;
2119;SDS011;1066;52.540;13.420;2023-08-12T13:55:39;6.03;;;5.53;;
2119;SDS011;1066;52.540;13.420;2023-08-12T13:58:05;6.70;;;5.40;;
2119;SDS011;1066;52.540;13.420;2023-08-12T14:00:30;6.10;;;5.67;;
2119;SDS011;1066;52.540;13.420;2023-08-12T14:02:55;6.20;;;5.70;;
2119;SDS011;1066;52.540;13.420;2023-08-12T14:05:20;6.20;;;5.70;;
2119;SDS011;1066;52.540;13.420;2023-08-12T14:07:46;5.43;;;5.03;;
2119;SDS011;1066;52.540;13.420;2023-08-12T14:10:11;5.60;;;5.10;;
2119;SDS011;1066;52.540;13.420;2023-08-12T14:12:36;5.90;;;5.30;;
2119;SDS011;1066;52.540;13.420;2023-08-12T14:15:02;4.73;;;4.33;;
2119;SDS011;1066;52.540;13.420;2023-08-12T14:17:27;5.80;;;5.30;;
2119;SDS011;1066;52.540;13.420;2023-08-12T14:19:55;4.67;;;4.27;;
2119;SDS011;1066;52.540;13.420;2023-08-12T14:22:20;5.20;;;4.80;;
2119;SDS011;1066;52.540;13.420;2023-08-12T14:24:45;4.80;;;4.43;;
2119;SDS011;1066;52.540;13.420;2023-08-12T14:27:13;8.20;;;4.40;;
2119;SDS011;1066;52.540;13.420;2023-08-12T14:29:38;4.20;;;3.90;;
2119;SDS011;1066;52.540;13.420;2023-08-12T14:32:03;4.43;;;4.03;;
2119;SDS011;1066;52.540;13.420;2023-08-12T14:34:29;4.77;;;4.37;;
2119;SDS011;1066;52.540;13.420;2023-08-12T14:36:55;4.37;;;3.97;;
2119;SDS011;1066;52.540;13.420;2023-08-12T14:39:20;4.50;;;4.10;;
2119;SDS011;1066;52.540;13.420;2023-08-12T14:41:46;4.63;;;4.27;;
2119;SDS011;1066;52.540;13.420;2023-08-12T14:44:12;4.03;;;3.73;;
2119;SDS011;1066;52.540;13.420;2023-08-12T14:46:37;5.63;;;4.43;;
2119;SDS011;1066;52.540;13.420;2023-08-12T14:49:02;4.80;;;4.40;;
2119;SDS011;1066;52.540;13.420;2023-08-12T14:51:29;5.10;;;4.60;;
2119;SDS011;1066;52.540;13.420;2023-08-12T14:53:54;4.93;;;4.43;;
2119;SDS011;1066;52.540;13.420;2023-08-12T14:56:20;4.33;;;4.03;;
2119;SDS011;1066;52.540;13.420;2023-08-12T14:58:45;5.00;;;4.60;;
2119;SDS011;1066;52.540;13.420;2023-08-12T15:01:10;7.10;;;4.80;;
2119;SDS011;1066;52.540;13.420;2023-08-12T15:03:36;4.77;;;4.37;;
2119;SDS011;1066;52.540;13.420;2023-08-12T15:06:02;5.30;;;4.90;;
2119;SDS011;1066;52.540;13.420;2023-08-12T15:08:29;5.90;;;3.53;;
2119;SDS011;1066;52.540;13.420;2023-08-12T15:10:54;7.87;;;4.37;;
2119;SDS011;1066;52.540;13.420;2023-08-12T15:13:19;4.30;;;3.90;;
2119;SDS011;1066;52.540;13.420;2023-08-12T15:15:45;4.83;;;4.43;;
2119;SDS011;1066;52.540;13.420;2023-08-12T15:18:11;4.70;;;4.40;;
2119;SDS011;1066;52.540;13.420;2023-08-12T15:20:37;4.63;;;4.33;;
2119;SDS011;1066;52.540;13.420;2023-08-12T15:23:02;5.53;;;4.73;;
2119;SDS011;1066;52.540;13.420;2023-08-12T15:25:27;4.77;;;4.40;;
2119;SDS011;1066;52.540;13.420;2023-08-12T15:27:52;5.30;;;4.80;;
2119;SDS011;1066;52.540;13.420;2023-08-12T15:30:18;4.73;;;4.33;;
2119;SDS011;1066;52.540;13.420;2023-08-12T15:32:43;5.20;;;4.80;;
2119;SDS011;1066;52.540;13.420;2023-08-12T15:35:08;6.00;;;4.70;;
2119;SDS011;1066;52.540;13.420;2023-08-12T15:37:34;4.20;;;3.90;;
2119;SDS011;1066;52.540;13.420;2023-08-12T15:40:00;4.50;;;4.10;;
2119;SDS011;1066;52.540;13.420;2023-08-12T15:42:25;5.57;;;5.07;;
2119;SDS011;1066;52.540;13.420;2023-08-12T15:44:50;4.53;;;4.13;;
2119;SDS011;1066;52.540;13.420;2023-08-12T15:47:15;5.07;;;4.67;;
2119;SDS011;1066;52.540;13.420;2023-08-12T15:49:41;5.60;;;5.10;;
2119;SDS011;1066;52.540;13.420;2023-08-12T15:52:06;4.83;;;4.37;;
2119;SDS011;1066;52.540;13.420;2023-08-12T15:54:31;5.50;;;5.10;;
2119;SDS011;1066;52.540;13.420;2023-08-12T15:56:56;5.80;;;5.33;;
2119;SDS011;1066;52.540;13.420;2023-08-12T15:59:22;4.80;;;4.40;;
2119;SDS011;1066;52.540;13.420;2023-08-12T16:01:47;5.47;;;4.97;;
2119;SDS011;1066;52.540;13.420;2023-08-12T16:04:12;5.27;;;4.87;;
2119;SDS011;1066;52.540;13.420;2023-08-12T16:06:37;5.23;;;4.80;;
2119;SDS011;1066;52.540;13.420;2023-08-12T16:09:03;5.90;;;5.40;;
2119;SDS011;1066;52.540;13.420;2023-08-12T16:11:30;5.80;;;5.40;;
2119;SDS011;1066;52.540;13.420;2023-08-12T16:13:55;5.63;;;5.13;;
2119;SDS011;1066;52.540;13.420;2023-08-12T16:16:20;6.40;;;5.77;;
2119;SDS011;1066;52.540;13.420;2023-08-12T16:18:45;6.30;;;5.70;;
2119;SDS011;1066;52.540;13.420;2023-08-12T16:21:10;5.87;;;5.33;;
2119;SDS011;1066;52.540;13.420;2023-08-12T16:23:36;7.00;;;6.30;;
2119;SDS011;1066;52.540;13.420;2023-08-12T16:26:01;5.63;;;5.17;;
2119;SDS011;1066;52.540;13.420;2023-08-12T16:28:26;5.70;;;5.20;;
2119;SDS011;1066;52.540;13.420;2023-08-12T16:30:51;6.20;;;5.70;;
2119;SDS011;1066;52.540;13.420;2023-08-12T16:33:17;5.40;;;5.00;;
2119;SDS011;1066;52.540;13.420;2023-08-12T16:35:42;6.67;;;5.70;;
2119;SDS011;1066;52.540;13.420;2023-08-12T16:38:07;6.00;;;5.43;;
2119;SDS011;1066;52.540;13.420;2023-08-12T16:40:32;6.30;;;5.80;;
2119;SDS011;1066;52.540;13.420;2023-08-12T16:42:58;6.50;;;5.90;;
2119;SDS011;1066;52.540;13.420;2023-08-12T16:45:23;6.97;;;6.37;;
2119;SDS011;1066;52.540;13.420;2023-08-12T16:47:48;6.03;;;5.60;;
2119;SDS011;1066;52.540;13.420;2023-08-12T16:50:13;8.27;;;6.43;;
2119;SDS011;1066;52.540;13.420;2023-08-12T16:52:39;6.33;;;5.73;;
2119;SDS011;1066;52.540;13.420;2023-08-12T16:55:04;6.73;;;6.10;;
2119;SDS011;1066;52.540;13.420;2023-08-12T16:57:30;5.60;;;5.10;;
2119;SDS011;1066;52.540;13.420;2023-08-12T16:59:55;6.13;;;5.70;;
2119;SDS011;1066;52.540;13.420;2023-08-12T17:02:20;6.07;;;5.57;;
2119;SDS011;1066;52.540;13.420;2023-08-12T17:04:45;7.40;;;6.70;;
2119;SDS011;1066;52.540;13.420;2023-08-12T17:07:11;6.50;;;6.00;;
2119;SDS011;1066;52.540;13.420;2023-08-12T17:09:36;6.50;;;5.90;;
2119;SDS011;1066;52.540;13.420;2023-08-12T17:12:01;5.53;;;5.13;;
2119;SDS011;1066;52.540;13.420;2023-08-12T17:14:30;8.30;;;6.77;;
2119;SDS011;1066;52.540;13.420;2023-08-12T17:16:55;6.20;;;5.63;;
2119;SDS011;1066;52.540;13.420;2023-08-12T17:19:21;7.17;;;6.57;;
2119;SDS011;1066;52.540;13.420;2023-08-12T17:21:46;6.80;;;6.30;;
2119;SDS011;1066;52.540;13.420;2023-08-12T17:24:11;7.00;;;5.77;;
2119;SDS011;1066;52.540;13.420;2023-08-12T17:26:36;6.50;;;6.00;;
2119;SDS011;1066;52.540;13.420;2023-08-12T17:29:01;6.00;;;5.50;;
2119;SDS011;1066;52.540;13.420;2023-08-12T17:31:27;7.90;;;6.30;;
2119;SDS011;1066;52.540;13.420;2023-08-12T17:33:52;5.57;;;5.17;;